Kenneth Carl — WDF8246 — position and weather

sailwx.info

Track history (hours):
 
Tides and Currents Weather Stations Pressure Air Temp Water Temp Dewpoint Dewpoint Depression Visibility Wind Speed Wind Dir Waves Ship Positions

Kenneth Carl

Owner: So. Cal. Ship Services, Inc., San Pedro, CA. More information available from US FCC via Universal Licensing System and Coast Guard Vessel Documentation Center.

Last reported at 2016-Apr-29 13:04 UTC. Time now 2016-Apr-29 23:38 UTC.
Position N 33°43' W 118°16'.

Length 31 m; draft 3 m.

Type: Ship. MMSI: 367492920.

Date/timePositionNaut miles runAvg speedWind from/ knotsBaromVisibWave heightAir tempDewpointWater temp
2016-Apr-29 13:04N 33°43' W 118°16'1 0.1
2016-Apr-29 01:28N 33°44' W 118°16'0 0.0
2016-Apr-28 09:32N 33°44' W 118°16'12 1.0
2016-Apr-27 22:08N 33°35' W 118°08'12 1.1
2016-Apr-27 11:24N 33°44' W 118°16'0 0.0
2016-Apr-27 10:30N 33°44' W 118°16'0 0.0
2016-Apr-27 09:24N 33°44' W 118°16'0 0.0
2016-Apr-27 08:30N 33°44' W 118°16'0 0.0
2016-Apr-27 07:30N 33°44' W 118°16'0 0.0
2016-Apr-27 06:30N 33°44' W 118°16'0 0.0
2016-Apr-27 05:33N 33°44' W 118°16'0 0.0
2016-Apr-27 04:33N 33°44' W 118°16'0 0.0
2016-Apr-27 03:33N 33°44' W 118°16'0 0.0
2016-Apr-27 02:33N 33°44' W 118°16'0 0.0
2016-Apr-27 01:27N 33°44' W 118°16'0 0.0
2016-Apr-27 00:15N 33°44' W 118°16'0 0.0
2016-Apr-26 22:33N 33°44' W 118°16'3 2.9
2016-Apr-26 21:33N 33°42' W 118°14'1 0.1
2016-Apr-26 14:27N 33°42' W 118°15'2 0.1
2016-Apr-25 21:11N 33°44' W 118°16'3 0.8
2016-Apr-25 18:11N 33°43' W 118°13'1 0.5
2016-Apr-25 15:22N 33°42' W 118°15'3 0.1
2016-Apr-24 03:21N 33°44' W 118°16'0 0.0
2016-Apr-22 03:25N 33°44' W 118°16'0 0.0
2016-Apr-22 02:33N 33°44' W 118°16'0 0.0
2016-Apr-22 01:33N 33°44' W 118°16'0 0.0
2016-Apr-22 00:32N 33°44' W 118°16'0 0.0
2016-Apr-21 23:33N 33°44' W 118°16'0 0.0
2016-Apr-21 22:33N 33°44' W 118°16'0 0.0
2016-Apr-21 21:33N 33°44' W 118°16'0 0.0
2016-Apr-21 20:33N 33°44' W 118°16'2 2.4
2016-Apr-21 19:33N 33°42' W 118°15'9 9.2
2016-Apr-21 18:33N 33°35' W 118°08'0 0.0
2016-Apr-21 17:33N 33°35' W 118°08'1 0.7
2016-Apr-21 16:33N 33°34' W 118°07'1 0.5
2016-Apr-21 15:33N 33°34' W 118°07'5 5.3
2016-Apr-21 14:33N 33°38' W 118°11'8 7.2
2016-Apr-21 13:29N 33°44' W 118°16'0 0.0
2016-Apr-21 12:33N 33°44' W 118°16'0 0.0
2016-Apr-21 11:33N 33°44' W 118°16'0 0.0
2016-Apr-21 10:33N 33°44' W 118°16'0 0.0
2016-Apr-21 09:33N 33°44' W 118°16'0 0.0
2016-Apr-21 08:32N 33°44' W 118°16'0 0.0
2016-Apr-21 07:33N 33°44' W 118°16'0 0.0
2016-Apr-21 06:32N 33°44' W 118°16'0 0.0
2016-Apr-21 05:32N 33°44' W 118°16'0 0.0
2016-Apr-21 04:33N 33°44' W 118°16'0 0.0
2016-Apr-21 03:33N 33°44' W 118°16'5 0.9
2016-Apr-20 22:31N 33°40' W 118°13'8 8.3
2016-Apr-20 21:32N 33°34' W 118°07'1 1.3
2016-Apr-20 20:33N 33°35' W 118°08'0 0.0
2016-Apr-20 19:33N 33°35' W 118°08'0 0.0
2016-Apr-20 18:33N 33°35' W 118°08'0 0.0
2016-Apr-20 17:28N 33°35' W 118°08'0 0.0
2016-Apr-20 16:32N 33°35' W 118°08'3 3.1
2016-Apr-20 15:33N 33°37' W 118°10'8 8.4
2016-Apr-20 14:33N 33°44' W 118°16'0 0.3
2016-Apr-20 13:33N 33°44' W 118°16'0 0.1
2016-Apr-20 12:33N 33°44' W 118°16'0 0.0
2016-Apr-20 11:33N 33°44' W 118°16'0 0.0
2016-Apr-20 10:33N 33°44' W 118°16'0 0.0
2016-Apr-20 09:33N 33°44' W 118°16'0 0.0
2016-Apr-20 08:33N 33°44' W 118°16'0 0.0
2016-Apr-20 07:33N 33°44' W 118°16'0 0.0
2016-Apr-20 06:32N 33°44' W 118°16'0 0.0
2016-Apr-20 05:32N 33°44' W 118°16'0 0.0
2016-Apr-20 04:33N 33°44' W 118°16'0 0.0
2016-Apr-20 03:33N 33°44' W 118°16'0 0.0
2016-Apr-19 20:10N 33°44' W 118°16'0 0.5
2016-Apr-19 19:31N 33°44' W 118°16'9 9.6
2016-Apr-19 18:33N 33°36' W 118°09'3 3.3
2016-Apr-19 17:33N 33°34' W 118°07'0 0.0
2016-Apr-19 16:33N 33°34' W 118°07'1 1.3
2016-Apr-19 15:33N 33°35' W 118°08'8 8.2
2016-Apr-19 14:33N 33°41' W 118°14'3 3.5
2016-Apr-19 13:33N 33°44' W 118°16'  
Track history (hours):
 
Tides and Currents Weather Stations Pressure Air Temp Water Temp Dewpoint Dewpoint Depression Visibility Wind Speed Wind Dir Waves Ship Positions

Kenneth Carl

Owner: So. Cal. Ship Services, Inc., San Pedro, CA. More information available from US FCC via Universal Licensing System and Coast Guard Vessel Documentation Center.

Last reported at 2016-Apr-29 13:04 UTC. Time now 2016-Apr-29 23:38 UTC.
Position N 33°43' W 118°16'.

Length 31 m; draft 3 m.

Type: Ship. MMSI: 367492920.

Date/timePositionNaut miles runAvg speedWind from/ knotsBaromVisibWave heightAir tempDewpointWater temp
2016-Apr-29 13:04N 33°43' W 118°16'1 0.1
2016-Apr-29 01:28N 33°44' W 118°16'0 0.0
2016-Apr-28 09:32N 33°44' W 118°16'12 1.0
2016-Apr-27 22:08N 33°35' W 118°08'12 1.1
2016-Apr-27 11:24N 33°44' W 118°16'0 0.0
2016-Apr-27 10:30N 33°44' W 118°16'0 0.0
2016-Apr-27 09:24N 33°44' W 118°16'0 0.0
2016-Apr-27 08:30N 33°44' W 118°16'0 0.0
2016-Apr-27 07:30N 33°44' W 118°16'0 0.0
2016-Apr-27 06:30N 33°44' W 118°16'0 0.0
2016-Apr-27 05:33N 33°44' W 118°16'0 0.0
2016-Apr-27 04:33N 33°44' W 118°16'0 0.0
2016-Apr-27 03:33N 33°44' W 118°16'0 0.0
2016-Apr-27 02:33N 33°44' W 118°16'0 0.0
2016-Apr-27 01:27N 33°44' W 118°16'0 0.0
2016-Apr-27 00:15N 33°44' W 118°16'0 0.0
2016-Apr-26 22:33N 33°44' W 118°16'3 2.9
2016-Apr-26 21:33N 33°42' W 118°14'1 0.1
2016-Apr-26 14:27N 33°42' W 118°15'2 0.1
2016-Apr-25 21:11N 33°44' W 118°16'3 0.8
2016-Apr-25 18:11N 33°43' W 118°13'1 0.5
2016-Apr-25 15:22N 33°42' W 118°15'3 0.1
2016-Apr-24 03:21N 33°44' W 118°16'0 0.0
2016-Apr-22 03:25N 33°44' W 118°16'0 0.0
2016-Apr-22 02:33N 33°44' W 118°16'0 0.0
2016-Apr-22 01:33N 33°44' W 118°16'0 0.0
2016-Apr-22 00:32N 33°44' W 118°16'0 0.0
2016-Apr-21 23:33N 33°44' W 118°16'0 0.0
2016-Apr-21 22:33N 33°44' W 118°16'0 0.0
2016-Apr-21 21:33N 33°44' W 118°16'0 0.0
2016-Apr-21 20:33N 33°44' W 118°16'2 2.4
2016-Apr-21 19:33N 33°42' W 118°15'9 9.2
2016-Apr-21 18:33N 33°35' W 118°08'0 0.0
2016-Apr-21 17:33N 33°35' W 118°08'1 0.7
2016-Apr-21 16:33N 33°34' W 118°07'1 0.5
2016-Apr-21 15:33N 33°34' W 118°07'5 5.3
2016-Apr-21 14:33N 33°38' W 118°11'8 7.2
2016-Apr-21 13:29N 33°44' W 118°16'0 0.0
2016-Apr-21 12:33N 33°44' W 118°16'0 0.0
2016-Apr-21 11:33N 33°44' W 118°16'0 0.0
2016-Apr-21 10:33N 33°44' W 118°16'0 0.0
2016-Apr-21 09:33N 33°44' W 118°16'0 0.0
2016-Apr-21 08:32N 33°44' W 118°16'0 0.0
2016-Apr-21 07:33N 33°44' W 118°16'0 0.0
2016-Apr-21 06:32N 33°44' W 118°16'0 0.0
2016-Apr-21 05:32N 33°44' W 118°16'0 0.0
2016-Apr-21 04:33N 33°44' W 118°16'0 0.0
2016-Apr-21 03:33N 33°44' W 118°16'5 0.9
2016-Apr-20 22:31N 33°40' W 118°13'8 8.3
2016-Apr-20 21:32N 33°34' W 118°07'1 1.3
2016-Apr-20 20:33N 33°35' W 118°08'0 0.0
2016-Apr-20 19:33N 33°35' W 118°08'0 0.0
2016-Apr-20 18:33N 33°35' W 118°08'0 0.0
2016-Apr-20 17:28N 33°35' W 118°08'0 0.0
2016-Apr-20 16:32N 33°35' W 118°08'3 3.1
2016-Apr-20 15:33N 33°37' W 118°10'8 8.4
2016-Apr-20 14:33N 33°44' W 118°16'0 0.3
2016-Apr-20 13:33N 33°44' W 118°16'0 0.1
2016-Apr-20 12:33N 33°44' W 118°16'0 0.0
2016-Apr-20 11:33N 33°44' W 118°16'0 0.0
2016-Apr-20 10:33N 33°44' W 118°16'0 0.0
2016-Apr-20 09:33N 33°44' W 118°16'0 0.0
2016-Apr-20 08:33N 33°44' W 118°16'0 0.0
2016-Apr-20 07:33N 33°44' W 118°16'0 0.0
2016-Apr-20 06:32N 33°44' W 118°16'0 0.0
2016-Apr-20 05:32N 33°44' W 118°16'0 0.0
2016-Apr-20 04:33N 33°44' W 118°16'0 0.0
2016-Apr-20 03:33N 33°44' W 118°16'0 0.0
2016-Apr-19 20:10N 33°44' W 118°16'0 0.5
2016-Apr-19 19:31N 33°44' W 118°16'9 9.6
2016-Apr-19 18:33N 33°36' W 118°09'3 3.3
2016-Apr-19 17:33N 33°34' W 118°07'0 0.0
2016-Apr-19 16:33N 33°34' W 118°07'1 1.3
2016-Apr-19 15:33N 33°35' W 118°08'8 8.2
2016-Apr-19 14:33N 33°41' W 118°14'3 3.5
2016-Apr-19 13:33N 33°44' W 118°16'  

Dump ship's entire track history